sensor_id;sensor_type;location;lat;lon;timestamp;P1;durP1;ratioP1;P2;durP2;ratioP2
43700;SDS011;58809;47.984;7.964;2023-05-07T00:00:39;7.32;;;5.70;;
43700;SDS011;58809;47.984;7.964;2023-05-07T00:03:41;8.43;;;4.53;;
43700;SDS011;58809;47.984;7.964;2023-05-07T00:06:43;6.45;;;4.88;;
43700;SDS011;58809;47.984;7.964;2023-05-07T00:09:44;6.88;;;4.70;;
43700;SDS011;58809;47.984;7.964;2023-05-07T00:12:46;8.57;;;5.63;;
43700;SDS011;58809;47.984;7.964;2023-05-07T00:15:48;6.43;;;5.10;;
43700;SDS011;58809;47.984;7.964;2023-05-07T00:18:49;6.85;;;4.45;;
43700;SDS011;58809;47.984;7.964;2023-05-07T00:21:51;6.75;;;4.95;;
43700;SDS011;58809;47.984;7.964;2023-05-07T00:24:54;7.65;;;4.88;;
43700;SDS011;58809;47.984;7.964;2023-05-07T00:27:56;7.47;;;4.93;;
43700;SDS011;58809;47.984;7.964;2023-05-07T00:31:03;7.13;;;5.25;;
43700;SDS011;58809;47.984;7.964;2023-05-07T00:34:05;11.00;;;5.43;;
43700;SDS011;58809;47.984;7.964;2023-05-07T00:37:07;5.78;;;5.18;;
43700;SDS011;58809;47.984;7.964;2023-05-07T00:40:10;6.60;;;4.68;;
43700;SDS011;58809;47.984;7.964;2023-05-07T00:43:12;6.60;;;4.60;;
43700;SDS011;58809;47.984;7.964;2023-05-07T00:46:13;8.50;;;4.57;;
43700;SDS011;58809;47.984;7.964;2023-05-07T00:49:17;9.03;;;5.13;;
43700;SDS011;58809;47.984;7.964;2023-05-07T00:52:19;6.95;;;5.05;;
43700;SDS011;58809;47.984;7.964;2023-05-07T00:55:23;9.38;;;4.72;;
43700;SDS011;58809;47.984;7.964;2023-05-07T00:58:25;7.72;;;5.00;;
43700;SDS011;58809;47.984;7.964;2023-05-07T01:01:26;7.53;;;4.88;;
43700;SDS011;58809;47.984;7.964;2023-05-07T01:04:28;6.97;;;4.38;;
43700;SDS011;58809;47.984;7.964;2023-05-07T01:07:30;7.40;;;4.85;;
43700;SDS011;58809;47.984;7.964;2023-05-07T01:10:33;7.63;;;4.93;;
43700;SDS011;58809;47.984;7.964;2023-05-07T01:13:34;7.40;;;5.38;;
43700;SDS011;58809;47.984;7.964;2023-05-07T01:16:38;8.70;;;5.10;;
43700;SDS011;58809;47.984;7.964;2023-05-07T01:19:42;8.13;;;5.13;;
43700;SDS011;58809;47.984;7.964;2023-05-07T01:22:45;7.82;;;5.10;;
43700;SDS011;58809;47.984;7.964;2023-05-07T01:25:51;10.90;;;5.65;;
43700;SDS011;58809;47.984;7.964;2023-05-07T01:28:58;8.45;;;5.13;;
43700;SDS011;58809;47.984;7.964;2023-05-07T01:32:00;14.65;;;8.75;;
43700;SDS011;58809;47.984;7.964;2023-05-07T01:35:04;10.48;;;7.40;;
43700;SDS011;58809;47.984;7.964;2023-05-07T01:38:08;10.52;;;7.65;;
43700;SDS011;58809;47.984;7.964;2023-05-07T01:41:10;8.73;;;6.30;;
43700;SDS011;58809;47.984;7.964;2023-05-07T01:44:13;8.60;;;6.40;;
43700;SDS011;58809;47.984;7.964;2023-05-07T01:47:16;9.55;;;7.32;;
43700;SDS011;58809;47.984;7.964;2023-05-07T01:50:18;15.38;;;7.97;;
43700;SDS011;58809;47.984;7.964;2023-05-07T01:53:20;10.40;;;7.90;;
43700;SDS011;58809;47.984;7.964;2023-05-07T01:56:22;9.60;;;7.20;;
43700;SDS011;58809;47.984;7.964;2023-05-07T01:59:25;8.77;;;6.32;;
43700;SDS011;58809;47.984;7.964;2023-05-07T02:02:26;9.65;;;7.18;;
43700;SDS011;58809;47.984;7.964;2023-05-07T02:05:30;11.65;;;7.07;;
43700;SDS011;58809;47.984;7.964;2023-05-07T02:08:37;7.40;;;6.15;;
43700;SDS011;58809;47.984;7.964;2023-05-07T02:11:39;7.03;;;5.43;;
43700;SDS011;58809;47.984;7.964;2023-05-07T02:14:41;7.90;;;5.28;;
43700;SDS011;58809;47.984;7.964;2023-05-07T02:18:04;8.90;;;6.07;;
43700;SDS011;58809;47.984;7.964;2023-05-07T02:21:06;8.85;;;5.43;;
43700;SDS011;58809;47.984;7.964;2023-05-07T02:24:07;8.60;;;5.40;;
43700;SDS011;58809;47.984;7.964;2023-05-07T02:27:08;8.30;;;5.03;;
43700;SDS011;58809;47.984;7.964;2023-05-07T02:30:11;9.27;;;5.07;;
43700;SDS011;58809;47.984;7.964;2023-05-07T02:33:13;7.93;;;5.63;;
43700;SDS011;58809;47.984;7.964;2023-05-07T02:36:16;7.93;;;4.88;;
43700;SDS011;58809;47.984;7.964;2023-05-07T02:39:33;8.80;;;5.25;;
43700;SDS011;58809;47.984;7.964;2023-05-07T02:42:34;7.65;;;5.55;;
43700;SDS011;58809;47.984;7.964;2023-05-07T02:45:36;7.70;;;5.72;;
43700;SDS011;58809;47.984;7.964;2023-05-07T02:51:41;6.70;;;5.38;;
43700;SDS011;58809;47.984;7.964;2023-05-07T02:54:49;7.65;;;4.93;;
43700;SDS011;58809;47.984;7.964;2023-05-07T02:57:50;6.65;;;5.35;;
43700;SDS011;58809;47.984;7.964;2023-05-07T03:00:52;6.78;;;5.00;;
43700;SDS011;58809;47.984;7.964;2023-05-07T03:04:07;7.72;;;5.43;;
43700;SDS011;58809;47.984;7.964;2023-05-07T03:07:09;7.78;;;5.43;;
43700;SDS011;58809;47.984;7.964;2023-05-07T03:10:10;7.40;;;5.45;;
43700;SDS011;58809;47.984;7.964;2023-05-07T03:13:12;7.43;;;5.25;;
43700;SDS011;58809;47.984;7.964;2023-05-07T03:16:14;7.35;;;5.57;;
43700;SDS011;58809;47.984;7.964;2023-05-07T03:19:16;8.07;;;5.50;;
43700;SDS011;58809;47.984;7.964;2023-05-07T03:22:18;7.63;;;5.00;;
43700;SDS011;58809;47.984;7.964;2023-05-07T03:25:20;6.22;;;5.38;;
43700;SDS011;58809;47.984;7.964;2023-05-07T03:28:21;7.88;;;5.70;;
43700;SDS011;58809;47.984;7.964;2023-05-07T03:31:31;8.70;;;5.95;;
43700;SDS011;58809;47.984;7.964;2023-05-07T03:34:34;7.20;;;5.82;;
43700;SDS011;58809;47.984;7.964;2023-05-07T03:37:37;9.00;;;5.40;;
43700;SDS011;58809;47.984;7.964;2023-05-07T03:40:39;7.68;;;5.68;;
43700;SDS011;58809;47.984;7.964;2023-05-07T03:43:41;7.57;;;6.20;;
43700;SDS011;58809;47.984;7.964;2023-05-07T03:46:45;9.00;;;6.07;;
43700;SDS011;58809;47.984;7.964;2023-05-07T03:49:47;7.60;;;5.40;;
43700;SDS011;58809;47.984;7.964;2023-05-07T03:52:50;6.60;;;5.90;;
43700;SDS011;58809;47.984;7.964;2023-05-07T03:58:56;8.23;;;6.57;;
43700;SDS011;58809;47.984;7.964;2023-05-07T04:01:58;7.88;;;6.68;;
43700;SDS011;58809;47.984;7.964;2023-05-07T04:05:02;8.10;;;5.82;;
43700;SDS011;58809;47.984;7.964;2023-05-07T04:08:04;8.32;;;6.05;;
43700;SDS011;58809;47.984;7.964;2023-05-07T04:11:13;11.48;;;6.40;;
43700;SDS011;58809;47.984;7.964;2023-05-07T04:14:15;8.50;;;6.93;;
43700;SDS011;58809;47.984;7.964;2023-05-07T04:17:16;11.27;;;7.43;;
43700;SDS011;58809;47.984;7.964;2023-05-07T04:20:18;9.75;;;7.78;;
43700;SDS011;58809;47.984;7.964;2023-05-07T04:23:25;9.63;;;6.38;;
43700;SDS011;58809;47.984;7.964;2023-05-07T04:26:27;12.02;;;8.40;;
43700;SDS011;58809;47.984;7.964;2023-05-07T04:29:29;12.02;;;7.63;;
43700;SDS011;58809;47.984;7.964;2023-05-07T04:32:32;15.27;;;8.38;;
43700;SDS011;58809;47.984;7.964;2023-05-07T04:35:33;11.38;;;7.88;;
43700;SDS011;58809;47.984;7.964;2023-05-07T04:38:37;10.65;;;7.05;;
43700;SDS011;58809;47.984;7.964;2023-05-07T04:41:40;9.20;;;7.75;;
43700;SDS011;58809;47.984;7.964;2023-05-07T04:44:43;9.00;;;7.07;;
43700;SDS011;58809;47.984;7.964;2023-05-07T04:47:46;8.93;;;7.10;;
43700;SDS011;58809;47.984;7.964;2023-05-07T04:50:48;7.78;;;6.43;;
43700;SDS011;58809;47.984;7.964;2023-05-07T04:53:52;9.65;;;6.35;;
43700;SDS011;58809;47.984;7.964;2023-05-07T04:56:53;9.95;;;5.78;;
43700;SDS011;58809;47.984;7.964;2023-05-07T04:59:55;10.25;;;6.20;;
43700;SDS011;58809;47.984;7.964;2023-05-07T05:02:57;10.88;;;6.35;;
43700;SDS011;58809;47.984;7.964;2023-05-07T05:05:59;8.02;;;5.70;;
43700;SDS011;58809;47.984;7.964;2023-05-07T05:09:04;7.85;;;6.20;;
43700;SDS011;58809;47.984;7.964;2023-05-07T05:12:08;10.70;;;6.05;;
43700;SDS011;58809;47.984;7.964;2023-05-07T05:15:12;8.55;;;5.82;;
43700;SDS011;58809;47.984;7.964;2023-05-07T05:18:14;6.78;;;5.75;;
43700;SDS011;58809;47.984;7.964;2023-05-07T05:21:15;9.15;;;6.30;;
43700;SDS011;58809;47.984;7.964;2023-05-07T05:24:19;7.72;;;6.55;;
43700;SDS011;58809;47.984;7.964;2023-05-07T05:27:21;7.15;;;6.18;;
43700;SDS011;58809;47.984;7.964;2023-05-07T05:30:23;7.22;;;6.03;;
43700;SDS011;58809;47.984;7.964;2023-05-07T05:33:25;9.38;;;6.55;;
43700;SDS011;58809;47.984;7.964;2023-05-07T05:36:28;10.02;;;7.15;;
43700;SDS011;58809;47.984;7.964;2023-05-07T05:39:31;8.38;;;6.55;;
43700;SDS011;58809;47.984;7.964;2023-05-07T05:42:33;7.15;;;6.05;;
43700;SDS011;58809;47.984;7.964;2023-05-07T05:45:35;7.53;;;6.55;;
43700;SDS011;58809;47.984;7.964;2023-05-07T05:48:36;7.55;;;6.25;;
43700;SDS011;58809;47.984;7.964;2023-05-07T05:51:39;7.70;;;5.93;;
43700;SDS011;58809;47.984;7.964;2023-05-07T05:54:42;8.27;;;6.03;;
43700;SDS011;58809;47.984;7.964;2023-05-07T05:57:43;7.55;;;5.68;;
43700;SDS011;58809;47.984;7.964;2023-05-07T06:00:45;8.40;;;5.50;;
43700;SDS011;58809;47.984;7.964;2023-05-07T06:03:47;7.45;;;6.07;;
43700;SDS011;58809;47.984;7.964;2023-05-07T06:06:49;7.10;;;5.68;;
43700;SDS011;58809;47.984;7.964;2023-05-07T06:09:51;8.43;;;5.43;;
43700;SDS011;58809;47.984;7.964;2023-05-07T06:12:54;8.73;;;6.18;;
43700;SDS011;58809;47.984;7.964;2023-05-07T06:15:56;8.43;;;6.18;;
43700;SDS011;58809;47.984;7.964;2023-05-07T06:18:57;9.32;;;6.00;;
43700;SDS011;58809;47.984;7.964;2023-05-07T06:21:59;7.90;;;5.93;;
43700;SDS011;58809;47.984;7.964;2023-05-07T06:25:03;8.98;;;6.18;;
43700;SDS011;58809;47.984;7.964;2023-05-07T06:28:05;6.80;;;6.03;;
43700;SDS011;58809;47.984;7.964;2023-05-07T06:31:15;7.90;;;5.68;;
43700;SDS011;58809;47.984;7.964;2023-05-07T06:34:25;9.43;;;6.15;;
43700;SDS011;58809;47.984;7.964;2023-05-07T06:37:26;8.30;;;5.47;;
43700;SDS011;58809;47.984;7.964;2023-05-07T06:40:37;6.60;;;5.88;;
43700;SDS011;58809;47.984;7.964;2023-05-07T06:43:38;8.75;;;6.13;;
43700;SDS011;58809;47.984;7.964;2023-05-07T06:46:59;8.75;;;6.82;;
43700;SDS011;58809;47.984;7.964;2023-05-07T06:50:01;8.45;;;5.75;;
43700;SDS011;58809;47.984;7.964;2023-05-07T06:53:06;6.88;;;5.47;;
43700;SDS011;58809;47.984;7.964;2023-05-07T06:56:08;6.95;;;6.13;;
43700;SDS011;58809;47.984;7.964;2023-05-07T06:59:10;8.63;;;6.40;;
43700;SDS011;58809;47.984;7.964;2023-05-07T07:02:14;7.63;;;6.82;;
43700;SDS011;58809;47.984;7.964;2023-05-07T07:05:18;9.05;;;6.78;;
43700;SDS011;58809;47.984;7.964;2023-05-07T07:08:21;7.78;;;6.43;;
43700;SDS011;58809;47.984;7.964;2023-05-07T07:11:24;9.68;;;7.18;;
43700;SDS011;58809;47.984;7.964;2023-05-07T07:14:26;6.53;;;5.93;;
43700;SDS011;58809;47.984;7.964;2023-05-07T07:17:28;8.25;;;6.60;;
43700;SDS011;58809;47.984;7.964;2023-05-07T07:20:30;8.35;;;6.38;;
43700;SDS011;58809;47.984;7.964;2023-05-07T07:23:32;6.82;;;6.05;;
43700;SDS011;58809;47.984;7.964;2023-05-07T07:26:34;6.15;;;5.03;;
43700;SDS011;58809;47.984;7.964;2023-05-07T07:29:36;6.40;;;5.10;;
43700;SDS011;58809;47.984;7.964;2023-05-07T07:32:37;7.40;;;5.07;;
43700;SDS011;58809;47.984;7.964;2023-05-07T07:35:39;6.57;;;5.20;;
43700;SDS011;58809;47.984;7.964;2023-05-07T07:38:41;8.70;;;5.30;;
43700;SDS011;58809;47.984;7.964;2023-05-07T07:41:43;5.40;;;4.90;;
43700;SDS011;58809;47.984;7.964;2023-05-07T07:44:45;8.52;;;5.63;;
43700;SDS011;58809;47.984;7.964;2023-05-07T07:47:49;7.65;;;5.30;;
43700;SDS011;58809;47.984;7.964;2023-05-07T07:50:51;8.88;;;5.90;;
43700;SDS011;58809;47.984;7.964;2023-05-07T07:53:53;7.57;;;5.38;;
43700;SDS011;58809;47.984;7.964;2023-05-07T07:56:56;7.20;;;5.32;;
43700;SDS011;58809;47.984;7.964;2023-05-07T07:59:58;8.63;;;5.55;;
43700;SDS011;58809;47.984;7.964;2023-05-07T08:03:00;7.60;;;4.95;;
43700;SDS011;58809;47.984;7.964;2023-05-07T08:06:10;7.57;;;5.47;;
43700;SDS011;58809;47.984;7.964;2023-05-07T08:09:12;8.38;;;4.88;;
43700;SDS011;58809;47.984;7.964;2023-05-07T08:12:15;8.93;;;5.63;;
43700;SDS011;58809;47.984;7.964;2023-05-07T08:15:17;8.15;;;5.40;;
43700;SDS011;58809;47.984;7.964;2023-05-07T08:18:19;6.38;;;5.30;;
43700;SDS011;58809;47.984;7.964;2023-05-07T08:21:22;7.90;;;5.25;;
43700;SDS011;58809;47.984;7.964;2023-05-07T08:24:23;7.13;;;5.68;;
43700;SDS011;58809;47.984;7.964;2023-05-07T08:27:26;5.78;;;5.07;;
43700;SDS011;58809;47.984;7.964;2023-05-07T08:30:27;6.22;;;4.90;;
43700;SDS011;58809;47.984;7.964;2023-05-07T08:33:29;8.00;;;5.50;;
43700;SDS011;58809;47.984;7.964;2023-05-07T08:36:31;9.80;;;5.60;;
43700;SDS011;58809;47.984;7.964;2023-05-07T08:39:32;6.30;;;5.05;;
43700;SDS011;58809;47.984;7.964;2023-05-07T08:42:35;7.00;;;5.10;;
43700;SDS011;58809;47.984;7.964;2023-05-07T08:45:39;6.97;;;5.22;;
43700;SDS011;58809;47.984;7.964;2023-05-07T08:48:44;7.82;;;5.43;;
43700;SDS011;58809;47.984;7.964;2023-05-07T08:51:48;5.85;;;4.70;;
43700;SDS011;58809;47.984;7.964;2023-05-07T08:54:50;7.90;;;5.25;;
43700;SDS011;58809;47.984;7.964;2023-05-07T08:57:52;7.55;;;4.90;;
43700;SDS011;58809;47.984;7.964;2023-05-07T09:00:55;8.02;;;5.00;;
43700;SDS011;58809;47.984;7.964;2023-05-07T09:03:57;7.40;;;5.70;;
43700;SDS011;58809;47.984;7.964;2023-05-07T09:07:01;6.97;;;5.38;;
43700;SDS011;58809;47.984;7.964;2023-05-07T09:10:10;6.45;;;5.60;;
43700;SDS011;58809;47.984;7.964;2023-05-07T09:13:13;10.23;;;5.65;;
43700;SDS011;58809;47.984;7.964;2023-05-07T09:16:16;6.53;;;5.82;;
43700;SDS011;58809;47.984;7.964;2023-05-07T09:19:23;7.70;;;5.40;;
43700;SDS011;58809;47.984;7.964;2023-05-07T09:22:30;7.22;;;5.10;;
43700;SDS011;58809;47.984;7.964;2023-05-07T09:25:37;7.10;;;5.60;;
43700;SDS011;58809;47.984;7.964;2023-05-07T09:28:46;8.95;;;6.05;;
43700;SDS011;58809;47.984;7.964;2023-05-07T09:31:49;7.60;;;6.03;;
43700;SDS011;58809;47.984;7.964;2023-05-07T09:34:52;6.40;;;5.60;;
43700;SDS011;58809;47.984;7.964;2023-05-07T09:37:57;7.65;;;5.88;;
43700;SDS011;58809;47.984;7.964;2023-05-07T09:41:07;8.77;;;6.10;;
43700;SDS011;58809;47.984;7.964;2023-05-07T09:44:31;6.20;;;5.60;;
43700;SDS011;58809;47.984;7.964;2023-05-07T09:47:33;7.97;;;6.13;;
43700;SDS011;58809;47.984;7.964;2023-05-07T09:50:45;9.55;;;6.30;;
43700;SDS011;58809;47.984;7.964;2023-05-07T09:53:53;6.20;;;5.43;;
43700;SDS011;58809;47.984;7.964;2023-05-07T09:56:56;6.88;;;6.18;;
43700;SDS011;58809;47.984;7.964;2023-05-07T10:00:02;8.38;;;7.18;;
43700;SDS011;58809;47.984;7.964;2023-05-07T10:03:20;7.22;;;6.40;;
43700;SDS011;58809;47.984;7.964;2023-05-07T10:06:29;7.60;;;6.32;;
43700;SDS011;58809;47.984;7.964;2023-05-07T10:09:33;7.75;;;5.72;;
43700;SDS011;58809;47.984;7.964;2023-05-07T10:12:41;7.43;;;6.00;;
43700;SDS011;58809;47.984;7.964;2023-05-07T10:15:52;7.38;;;6.35;;
43700;SDS011;58809;47.984;7.964;2023-05-07T10:18:55;7.95;;;6.20;;
43700;SDS011;58809;47.984;7.964;2023-05-07T10:22:03;8.88;;;6.15;;
43700;SDS011;58809;47.984;7.964;2023-05-07T10:28:22;10.70;;;7.22;;
43700;SDS011;58809;47.984;7.964;2023-05-07T10:34:58;13.35;;;10.02;;
43700;SDS011;58809;47.984;7.964;2023-05-07T10:38:04;11.10;;;9.40;;
43700;SDS011;58809;47.984;7.964;2023-05-07T10:41:09;10.95;;;9.80;;
43700;SDS011;58809;47.984;7.964;2023-05-07T10:44:30;12.57;;;9.35;;
43700;SDS011;58809;47.984;7.964;2023-05-07T10:48:05;9.27;;;8.25;;
43700;SDS011;58809;47.984;7.964;2023-05-07T10:51:26;10.52;;;8.90;;
43700;SDS011;58809;47.984;7.964;2023-05-07T10:54:37;12.30;;;8.90;;
43700;SDS011;58809;47.984;7.964;2023-05-07T10:57:44;9.75;;;8.38;;
43700;SDS011;58809;47.984;7.964;2023-05-07T11:00:59;9.13;;;7.13;;
43700;SDS011;58809;47.984;7.964;2023-05-07T11:04:13;6.93;;;6.20;;
43700;SDS011;58809;47.984;7.964;2023-05-07T11:07:34;7.05;;;6.30;;
43700;SDS011;58809;47.984;7.964;2023-05-07T11:10:57;9.00;;;6.90;;
43700;SDS011;58809;47.984;7.964;2023-05-07T11:17:53;7.10;;;6.00;;
43700;SDS011;58809;47.984;7.964;2023-05-07T11:20:59;7.63;;;6.60;;
43700;SDS011;58809;47.984;7.964;2023-05-07T11:24:21;7.18;;;6.00;;
43700;SDS011;58809;47.984;7.964;2023-05-07T11:27:33;6.65;;;6.05;;
43700;SDS011;58809;47.984;7.964;2023-05-07T11:30:35;6.93;;;5.72;;
43700;SDS011;58809;47.984;7.964;2023-05-07T11:33:38;6.60;;;5.90;;
43700;SDS011;58809;47.984;7.964;2023-05-07T11:36:44;7.78;;;6.10;;
43700;SDS011;58809;47.984;7.964;2023-05-07T11:39:50;6.50;;;5.20;;
43700;SDS011;58809;47.984;7.964;2023-05-07T11:42:55;6.38;;;5.30;;
43700;SDS011;58809;47.984;7.964;2023-05-07T11:46:04;8.60;;;5.63;;
43700;SDS011;58809;47.984;7.964;2023-05-07T11:49:08;6.18;;;5.35;;
43700;SDS011;58809;47.984;7.964;2023-05-07T11:52:10;5.90;;;5.30;;
43700;SDS011;58809;47.984;7.964;2023-05-07T11:55:15;8.20;;;5.85;;
43700;SDS011;58809;47.984;7.964;2023-05-07T11:58:23;5.93;;;5.32;;
43700;SDS011;58809;47.984;7.964;2023-05-07T12:01:27;7.50;;;5.88;;
43700;SDS011;58809;47.984;7.964;2023-05-07T12:04:29;6.75;;;5.50;;
43700;SDS011;58809;47.984;7.964;2023-05-07T12:07:33;7.75;;;5.85;;
43700;SDS011;58809;47.984;7.964;2023-05-07T12:13:41;5.50;;;5.00;;
43700;SDS011;58809;47.984;7.964;2023-05-07T12:16:43;6.70;;;5.55;;
43700;SDS011;58809;47.984;7.964;2023-05-07T12:19:46;5.90;;;5.40;;
43700;SDS011;58809;47.984;7.964;2023-05-07T12:22:48;6.50;;;5.90;;
43700;SDS011;58809;47.984;7.964;2023-05-07T12:25:51;6.57;;;5.97;;
43700;SDS011;58809;47.984;7.964;2023-05-07T12:28:53;7.13;;;6.30;;
43700;SDS011;58809;47.984;7.964;2023-05-07T12:31:54;7.05;;;5.88;;
43700;SDS011;58809;47.984;7.964;2023-05-07T12:34:56;6.60;;;5.70;;
43700;SDS011;58809;47.984;7.964;2023-05-07T12:37:59;8.50;;;6.40;;
43700;SDS011;58809;47.984;7.964;2023-05-07T12:41:05;6.80;;;6.10;;
43700;SDS011;58809;47.984;7.964;2023-05-07T12:44:08;6.82;;;6.05;;
43700;SDS011;58809;47.984;7.964;2023-05-07T12:47:10;6.53;;;5.85;;
43700;SDS011;58809;47.984;7.964;2023-05-07T12:50:12;7.93;;;6.03;;
43700;SDS011;58809;47.984;7.964;2023-05-07T12:53:15;8.45;;;5.70;;
43700;SDS011;58809;47.984;7.964;2023-05-07T12:56:16;7.32;;;5.68;;
43700;SDS011;58809;47.984;7.964;2023-05-07T12:59:18;6.90;;;6.25;;
43700;SDS011;58809;47.984;7.964;2023-05-07T13:02:20;7.10;;;6.18;;
43700;SDS011;58809;47.984;7.964;2023-05-07T13:05:21;7.88;;;6.53;;
43700;SDS011;58809;47.984;7.964;2023-05-07T13:08:23;8.10;;;6.90;;
43700;SDS011;58809;47.984;7.964;2023-05-07T13:11:45;7.30;;;6.63;;
43700;SDS011;58809;47.984;7.964;2023-05-07T13:14:47;7.30;;;6.55;;
43700;SDS011;58809;47.984;7.964;2023-05-07T13:17:48;8.15;;;7.38;;
43700;SDS011;58809;47.984;7.964;2023-05-07T13:20:50;8.70;;;7.10;;
43700;SDS011;58809;47.984;7.964;2023-05-07T13:23:52;8.35;;;6.93;;
43700;SDS011;58809;47.984;7.964;2023-05-07T13:26:54;8.82;;;7.03;;
43700;SDS011;58809;47.984;7.964;2023-05-07T13:29:56;9.07;;;6.97;;
43700;SDS011;58809;47.984;7.964;2023-05-07T13:32:57;7.30;;;6.40;;
43700;SDS011;58809;47.984;7.964;2023-05-07T13:35:59;7.65;;;6.57;;
43700;SDS011;58809;47.984;7.964;2023-05-07T13:39:01;7.38;;;6.60;;
43700;SDS011;58809;47.984;7.964;2023-05-07T13:42:04;7.88;;;7.07;;
43700;SDS011;58809;47.984;7.964;2023-05-07T13:45:06;9.27;;;6.95;;
43700;SDS011;58809;47.984;7.964;2023-05-07T13:48:08;7.22;;;6.50;;
43700;SDS011;58809;47.984;7.964;2023-05-07T13:51:10;8.10;;;7.25;;
43700;SDS011;58809;47.984;7.964;2023-05-07T13:54:11;9.32;;;6.82;;
43700;SDS011;58809;47.984;7.964;2023-05-07T13:57:13;7.50;;;6.38;;
43700;SDS011;58809;47.984;7.964;2023-05-07T14:00:15;7.45;;;6.22;;
43700;SDS011;58809;47.984;7.964;2023-05-07T14:03:17;7.18;;;6.47;;
43700;SDS011;58809;47.984;7.964;2023-05-07T14:06:21;7.15;;;6.45;;
43700;SDS011;58809;47.984;7.964;2023-05-07T14:09:23;6.88;;;6.18;;
43700;SDS011;58809;47.984;7.964;2023-05-07T14:12:25;8.23;;;6.40;;
43700;SDS011;58809;47.984;7.964;2023-05-07T14:15:26;8.02;;;7.22;;
43700;SDS011;58809;47.984;7.964;2023-05-07T14:18:28;8.00;;;6.50;;
43700;SDS011;58809;47.984;7.964;2023-05-07T14:21:30;7.85;;;6.78;;
43700;SDS011;58809;47.984;7.964;2023-05-07T14:24:32;11.82;;;7.63;;
43700;SDS011;58809;47.984;7.964;2023-05-07T14:27:39;7.15;;;6.28;;
43700;SDS011;58809;47.984;7.964;2023-05-07T14:30:40;6.43;;;5.82;;
43700;SDS011;58809;47.984;7.964;2023-05-07T14:33:42;6.65;;;5.68;;
43700;SDS011;58809;47.984;7.964;2023-05-07T14:36:43;6.78;;;5.65;;
43700;SDS011;58809;47.984;7.964;2023-05-07T14:39:45;7.07;;;5.60;;
43700;SDS011;58809;47.984;7.964;2023-05-07T14:42:50;7.68;;;6.50;;
43700;SDS011;58809;47.984;7.964;2023-05-07T14:45:52;7.40;;;5.43;;
43700;SDS011;58809;47.984;7.964;2023-05-07T14:48:54;6.35;;;5.10;;
43700;SDS011;58809;47.984;7.964;2023-05-07T14:51:57;5.95;;;5.35;;
43700;SDS011;58809;47.984;7.964;2023-05-07T14:55:00;6.88;;;5.35;;
43700;SDS011;58809;47.984;7.964;2023-05-07T14:58:01;7.97;;;5.07;;
43700;SDS011;58809;47.984;7.964;2023-05-07T15:01:03;7.35;;;5.57;;
43700;SDS011;58809;47.984;7.964;2023-05-07T15:04:05;9.35;;;6.78;;
43700;SDS011;58809;47.984;7.964;2023-05-07T15:07:07;10.40;;;6.47;;
43700;SDS011;58809;47.984;7.964;2023-05-07T15:10:08;11.48;;;6.10;;
43700;SDS011;58809;47.984;7.964;2023-05-07T15:13:10;15.07;;;6.70;;
43700;SDS011;58809;47.984;7.964;2023-05-07T15:16:16;7.03;;;6.00;;
43700;SDS011;58809;47.984;7.964;2023-05-07T15:19:18;9.30;;;6.53;;
43700;SDS011;58809;47.984;7.964;2023-05-07T15:22:19;8.52;;;5.97;;
43700;SDS011;58809;47.984;7.964;2023-05-07T15:25:22;8.85;;;6.30;;
43700;SDS011;58809;47.984;7.964;2023-05-07T15:28:24;7.70;;;6.30;;
43700;SDS011;58809;47.984;7.964;2023-05-07T15:31:29;8.73;;;6.28;;
43700;SDS011;58809;47.984;7.964;2023-05-07T15:34:31;10.32;;;6.55;;
43700;SDS011;58809;47.984;7.964;2023-05-07T15:37:33;10.35;;;5.45;;
43700;SDS011;58809;47.984;7.964;2023-05-07T15:40:34;9.80;;;5.22;;
43700;SDS011;58809;47.984;7.964;2023-05-07T15:43:43;7.20;;;5.30;;
43700;SDS011;58809;47.984;7.964;2023-05-07T15:46:47;8.02;;;5.13;;
43700;SDS011;58809;47.984;7.964;2023-05-07T15:49:48;8.40;;;5.28;;
43700;SDS011;58809;47.984;7.964;2023-05-07T15:52:50;8.27;;;5.68;;
43700;SDS011;58809;47.984;7.964;2023-05-07T15:55:51;7.32;;;5.57;;
43700;SDS011;58809;47.984;7.964;2023-05-07T15:58:53;7.43;;;5.03;;
43700;SDS011;58809;47.984;7.964;2023-05-07T16:01:54;9.05;;;5.28;;
43700;SDS011;58809;47.984;7.964;2023-05-07T16:04:56;10.52;;;5.05;;
43700;SDS011;58809;47.984;7.964;2023-05-07T16:07:57;7.45;;;4.70;;
43700;SDS011;58809;47.984;7.964;2023-05-07T16:11:00;4.83;;;3.83;;
43700;SDS011;58809;47.984;7.964;2023-05-07T16:14:01;4.50;;;4.07;;
43700;SDS011;58809;47.984;7.964;2023-05-07T16:17:03;5.60;;;3.70;;
43700;SDS011;58809;47.984;7.964;2023-05-07T16:20:05;4.50;;;4.10;;
43700;SDS011;58809;47.984;7.964;2023-05-07T16:23:09;6.57;;;4.40;;
43700;SDS011;58809;47.984;7.964;2023-05-07T16:26:10;6.93;;;4.20;;
43700;SDS011;58809;47.984;7.964;2023-05-07T16:29:20;6.47;;;4.50;;
43700;SDS011;58809;47.984;7.964;2023-05-07T16:32:23;6.78;;;4.18;;
43700;SDS011;58809;47.984;7.964;2023-05-07T16:35:25;5.93;;;4.50;;
43700;SDS011;58809;47.984;7.964;2023-05-07T16:38:27;5.63;;;4.40;;
43700;SDS011;58809;47.984;7.964;2023-05-07T16:41:31;4.85;;;3.80;;
43700;SDS011;58809;47.984;7.964;2023-05-07T16:44:33;6.57;;;4.03;;
43700;SDS011;58809;47.984;7.964;2023-05-07T16:47:34;5.63;;;4.22;;
43700;SDS011;58809;47.984;7.964;2023-05-07T16:50:36;6.30;;;4.50;;
43700;SDS011;58809;47.984;7.964;2023-05-07T16:53:38;6.97;;;4.50;;
43700;SDS011;58809;47.984;7.964;2023-05-07T16:56:39;5.60;;;4.32;;
43700;SDS011;58809;47.984;7.964;2023-05-07T16:59:42;6.05;;;4.45;;
43700;SDS011;58809;47.984;7.964;2023-05-07T17:02:44;7.82;;;4.60;;
43700;SDS011;58809;47.984;7.964;2023-05-07T17:05:47;5.30;;;4.13;;
43700;SDS011;58809;47.984;7.964;2023-05-07T17:08:48;6.43;;;4.65;;
43700;SDS011;58809;47.984;7.964;2023-05-07T17:11:51;5.60;;;4.23;;
43700;SDS011;58809;47.984;7.964;2023-05-07T17:14:53;7.03;;;4.38;;
43700;SDS011;58809;47.984;7.964;2023-05-07T17:17:54;6.30;;;4.75;;
43700;SDS011;58809;47.984;7.964;2023-05-07T17:20:56;5.53;;;4.57;;
43700;SDS011;58809;47.984;7.964;2023-05-07T17:23:58;5.18;;;4.20;;
43700;SDS011;58809;47.984;7.964;2023-05-07T17:26:59;10.13;;;4.63;;
43700;SDS011;58809;47.984;7.964;2023-05-07T17:30:01;9.40;;;4.50;;
43700;SDS011;58809;47.984;7.964;2023-05-07T17:33:03;6.28;;;4.93;;
43700;SDS011;58809;47.984;7.964;2023-05-07T17:36:20;6.28;;;4.35;;
43700;SDS011;58809;47.984;7.964;2023-05-07T17:39:22;7.07;;;5.38;;
43700;SDS011;58809;47.984;7.964;2023-05-07T17:42:24;6.97;;;4.78;;
43700;SDS011;58809;47.984;7.964;2023-05-07T17:45:26;5.90;;;4.50;;
43700;SDS011;58809;47.984;7.964;2023-05-07T17:48:27;8.98;;;4.70;;
43700;SDS011;58809;47.984;7.964;2023-05-07T17:51:29;8.00;;;4.40;;
43700;SDS011;58809;47.984;7.964;2023-05-07T17:54:42;5.15;;;4.53;;
43700;SDS011;58809;47.984;7.964;2023-05-07T17:57:44;6.18;;;4.75;;
43700;SDS011;58809;47.984;7.964;2023-05-07T18:00:45;6.53;;;4.53;;
43700;SDS011;58809;47.984;7.964;2023-05-07T18:06:51;9.32;;;5.03;;
43700;SDS011;58809;47.984;7.964;2023-05-07T18:09:53;7.45;;;4.95;;
43700;SDS011;58809;47.984;7.964;2023-05-07T18:12:55;5.93;;;5.13;;
43700;SDS011;58809;47.984;7.964;2023-05-07T18:15:56;7.18;;;5.07;;
43700;SDS011;58809;47.984;7.964;2023-05-07T18:18:58;10.85;;;5.25;;
43700;SDS011;58809;47.984;7.964;2023-05-07T18:22:01;8.18;;;4.78;;
43700;SDS011;58809;47.984;7.964;2023-05-07T18:25:03;8.23;;;5.00;;
43700;SDS011;58809;47.984;7.964;2023-05-07T18:28:05;8.60;;;5.13;;
43700;SDS011;58809;47.984;7.964;2023-05-07T18:31:06;5.70;;;4.32;;
43700;SDS011;58809;47.984;7.964;2023-05-07T18:34:08;5.68;;;4.78;;
43700;SDS011;58809;47.984;7.964;2023-05-07T18:37:10;6.35;;;4.57;;
43700;SDS011;58809;47.984;7.964;2023-05-07T18:40:12;6.00;;;4.50;;
43700;SDS011;58809;47.984;7.964;2023-05-07T18:43:14;7.53;;;4.32;;
43700;SDS011;58809;47.984;7.964;2023-05-07T18:46:15;9.25;;;5.10;;